Time;durP1;ratioP1;P1;durP2;ratioP2;P2;SDS_P1;SDS_P2;PMS_P1;PMS_P2;Temp;Humidity;BMP_temperature;BMP_pressure;BME280_temperature;BME280_humidity;BME280_pressure;Samples;Min_cycle;Max_cycle;Signal;HPM_P1;HPM_P2
2020/12/12 06:02:39;;;;;;;1999.90;999.90;;;5.50;99.90;;;;;;4904720;29;20642;-78
2020/12/12 06:05:06;;;;;;;1999.90;999.90;;;5.50;99.90;;;;;;4922741;29;20226;-80
2020/12/12 06:07:34;;;;;;;1999.90;999.90;;;5.50;99.90;;;;;;4923942;29;20210;-80
2020/12/12 06:10:04;;;;;;;1999.90;999.90;;;5.40;99.90;;;;;;4923097;29;20218;-78
2020/12/12 06:12:32;;;;;;;1999.90;999.90;;;5.30;99.90;;;;;;4942131;29;20622;-78
2020/12/12 06:14:59;;;;;;;1999.90;999.90;;;5.30;99.90;;;;;;4994289;23;20647;-75
2020/12/12 06:17:36;;;;;;;1999.90;999.90;;;5.30;99.90;;;;;;4994211;28;20200;-75
2020/12/12 06:20:05;;;;;;;1999.90;999.90;;;5.30;99.90;;;;;;4993877;28;20656;-75
2020/12/12 06:22:32;;;;;;;1999.90;999.90;;;5.40;99.90;;;;;;4993886;28;20258;-75
2020/12/12 06:25:01;;;;;;;1999.90;999.90;;;5.30;99.90;;;;;;4995594;28;20231;-74
2020/12/12 06:27:40;;;;;;;1999.90;999.90;;;5.40;99.90;;;;;;4994915;28;20208;-74
2020/12/12 06:30:12;;;;;;;1999.90;999.90;;;5.40;99.90;;;;;;4994764;28;20271;-74
2020/12/12 06:32:40;;;;;;;1999.90;999.90;;;5.50;99.90;;;;;;4994533;28;20691;-73
2020/12/12 06:35:08;;;;;;;1999.90;999.90;;;5.30;99.90;;;;;;4993548;28;20223;-73
2020/12/12 06:37:37;;;;;;;1999.90;999.90;;;5.40;99.90;;;;;;4993664;28;20204;-73
2020/12/12 06:40:06;;;;;;;1999.90;999.90;;;5.40;99.90;;;;;;4994029;28;20251;-73
2020/12/12 06:42:37;;;;;;;1999.90;999.90;;;5.50;99.90;;;;;;4993849;28;20207;-74
2020/12/12 06:45:31;;;;;;;1999.90;999.90;;;5.50;99.90;;;;;;4993539;28;20270;-73
2020/12/12 06:47:58;;;;;;;1999.90;999.90;;;5.40;99.90;;;;;;4983628;28;20263;-74
2020/12/12 06:50:30;;;;;;;1999.90;999.90;;;5.50;99.90;;;;;;4993515;28;20259;-74
2020/12/12 06:52:57;;;;;;;1999.90;999.90;;;5.50;99.90;;;;;;4991230;28;20196;-73
2020/12/12 06:55:24;;;;;;;1999.90;999.90;;;5.50;99.90;;;;;;4993160;28;20228;-75
2020/12/12 06:57:56;;;;;;;1999.90;999.90;;;5.50;99.90;;;;;;4993142;28;20211;-76
2020/12/12 07:00:29;;;;;;;1999.90;999.90;;;5.40;99.90;;;;;;4993206;28;20200;-74
2020/12/12 07:02:59;;;;;;;1999.90;999.90;;;5.30;99.90;;;;;;4993153;28;20204;-74
2020/12/12 07:05:29;;;;;;;1999.90;999.90;;;5.40;99.90;;;;;;4990197;28;20271;-74
2020/12/12 07:08:01;;;;;;;1999.90;999.90;;;5.50;99.90;;;;;;4992558;28;20204;-74
2020/12/12 07:10:29;;;;;;;1999.90;999.90;;;5.50;99.90;;;;;;4992894;28;20581;-75
2020/12/12 07:12:56;;;;;;;1999.90;999.90;;;5.50;99.90;;;;;;4992069;28;20207;-74
2020/12/12 07:15:26;;;;;;;1999.90;999.90;;;5.40;99.90;;;;;;4992890;28;20243;-72
2020/12/12 07:17:53;;;;;;;1999.90;999.90;;;5.40;99.90;;;;;;4991792;28;20757;-72
2020/12/12 07:20:20;;;;;;;1999.90;999.90;;;5.40;99.90;;;;;;4992983;28;20273;-72
2020/12/12 07:22:48;;;;;;;1999.90;999.90;;;5.40;99.90;;;;;;4992858;28;20207;-73
2020/12/12 07:25:15;;;;;;;1999.90;999.90;;;5.40;99.90;;;;;;4992561;28;20236;-72
2020/12/12 07:27:42;;;;;;;1999.90;999.90;;;5.40;99.90;;;;;;4992654;28;20259;-72
2020/12/12 07:30:10;;;;;;;1999.90;999.90;;;5.40;99.90;;;;;;4992989;28;20592;-72
2020/12/12 07:32:36;;;;;;;1999.90;999.90;;;5.40;99.90;;;;;;4992919;28;20207;-72
2020/12/12 07:35:03;;;;;;;1999.90;999.90;;;5.40;99.90;;;;;;4992823;28;20224;-72
2020/12/12 07:37:32;;;;;;;1999.90;999.90;;;5.40;99.90;;;;;;4992670;28;20204;-74
2020/12/12 07:40:00;;;;;;;1999.90;999.90;;;5.50;99.90;;;;;;4992950;28;20273;-72
2020/12/12 07:42:33;;;;;;;1999.90;999.90;;;5.50;99.90;;;;;;4993272;28;20204;-77
2020/12/12 07:45:17;;;;;;;1999.90;999.90;;;5.60;99.90;;;;;;4995219;28;20220;-77
2020/12/12 07:47:44;;;;;;;1999.90;999.90;;;5.70;99.90;;;;;;4993113;28;20627;-76
2020/12/12 07:50:11;;;;;;;1999.90;999.90;;;5.70;99.90;;;;;;4993728;28;20239;-77
2020/12/12 07:52:41;;;;;;;1999.90;999.90;;;5.70;99.90;;;;;;4994043;28;20204;-76
2020/12/12 07:55:11;;;;;;;1999.90;999.90;;;5.70;99.90;;;;;;4992968;28;20251;-77
2020/12/12 07:57:40;;;;;;;1999.90;999.90;;;5.80;99.90;;;;;;4992586;28;20631;-77
2020/12/12 08:00:10;;;;;;;1999.90;999.90;;;5.80;99.90;;;;;;4992892;28;20647;-76
2020/12/12 08:02:37;;;;;;;1999.90;999.90;;;5.80;99.90;;;;;;4992584;28;20213;-77
2020/12/12 08:05:06;;;;;;;1999.90;999.90;;;5.70;99.90;;;;;;4992581;28;20231;-76
2020/12/12 08:07:35;;;;;;;1999.90;999.90;;;5.70;99.90;;;;;;4992345;28;20204;-76
2020/12/12 08:10:04;;;;;;;1999.90;999.90;;;5.60;99.90;;;;;;4992404;28;20204;-77
2020/12/12 08:12:35;;;;;;;1999.90;999.90;;;5.60;99.90;;;;;;4992329;28;20764;-77
2020/12/12 08:15:11;;;;;;;1999.90;999.90;;;5.80;99.90;;;;;;4992203;28;20236;-76
2020/12/12 08:17:39;;;;;;;1999.90;999.90;;;5.70;99.90;;;;;;4996025;28;20258;-76
2020/12/12 08:20:06;;;;;;;1999.90;999.90;;;5.80;99.90;;;;;;4996501;28;20274;-76
2020/12/12 08:22:36;;;;;;;1999.90;999.90;;;5.90;99.90;;;;;;4996583;28;20275;-76
2020/12/12 08:25:07;;;;;;;1999.90;999.90;;;5.90;99.90;;;;;;4996232;28;20224;-76
2020/12/12 08:27:35;;;;;;;1999.90;999.90;;;6.00;99.90;;;;;;4996059;28;20322;-77
2020/12/12 08:30:05;;;;;;;1999.90;999.90;;;6.00;99.90;;;;;;4996267;28;20629;-78
2020/12/12 08:32:34;;;;;;;1999.90;999.90;;;6.10;99.90;;;;;;4996003;28;20231;-77
2020/12/12 08:35:12;;;;;;;1999.90;999.90;;;6.10;99.90;;;;;;4996116;28;20301;-77
2020/12/12 08:37:41;;;;;;;1999.90;999.90;;;6.10;99.90;;;;;;4996052;28;20579;-79
2020/12/12 08:40:09;;;;;;;1999.90;999.90;;;6.20;99.90;;;;;;4996188;28;20207;-76
2020/12/12 08:42:37;;;;;;;1999.90;999.90;;;6.30;99.90;;;;;;4996507;28;20200;-76
2020/12/12 08:45:15;;;;;;;1999.90;999.90;;;6.50;99.90;;;;;;4995742;28;20282;-77
2020/12/12 08:47:42;;;;;;;1999.90;999.90;;;6.50;99.90;;;;;;4995143;28;20204;-76
2020/12/12 08:50:09;;;;;;;1999.90;999.90;;;6.60;99.90;;;;;;4996020;28;20258;-77
2020/12/12 08:52:38;;;;;;;1999.90;999.90;;;6.60;99.90;;;;;;4995313;28;20224;-78
2020/12/12 08:55:06;;;;;;;1999.90;999.90;;;6.70;99.90;;;;;;4995956;28;20646;-76
2020/12/12 08:57:33;;;;;;;1999.90;999.90;;;6.60;99.90;;;;;;4995771;28;20208;-76
2020/12/12 09:00:03;;;;;;;1999.90;999.90;;;6.70;99.90;;;;;;4995695;28;20204;-76
2020/12/12 09:02:29;;;;;;;1999.90;999.90;;;6.70;99.90;;;;;;4995808;28;20649;-76
2020/12/12 09:05:07;;;;;;;1999.90;999.90;;;6.80;99.90;;;;;;4995726;28;20471;-76
2020/12/12 09:07:35;;;;;;;1999.90;999.90;;;6.80;99.90;;;;;;4995949;28;20208;-78
2020/12/12 09:10:10;;;;;;;1999.90;999.90;;;6.90;99.90;;;;;;4994728;28;20259;-76
2020/12/12 09:12:43;;;;;;;1999.90;999.90;;;7.00;99.90;;;;;;4994889;28;20239;-77
2020/12/12 09:15:11;;;;;;;1999.90;999.90;;;7.00;99.90;;;;;;4992668;28;20244;-77
2020/12/12 09:17:40;;;;;;;1999.90;999.90;;;7.10;99.90;;;;;;4995191;28;20211;-78
2020/12/12 09:20:08;;;;;;;1999.90;999.90;;;7.20;99.90;;;;;;4994802;28;20204;-78
2020/12/12 09:22:36;;;;;;;1999.90;999.90;;;7.20;99.90;;;;;;4995521;28;20290;-77
2020/12/12 09:25:04;;;;;;;1999.90;999.90;;;7.30;99.90;;;;;;4994817;28;20267;-74
2020/12/12 09:27:34;;;;;;;1999.90;999.90;;;7.40;99.90;;;;;;4994744;28;20231;-73
2020/12/12 09:30:00;;;;;;;1999.90;999.90;;;7.40;99.90;;;;;;4995032;28;20579;-74
2020/12/12 09:32:28;;;;;;;1999.90;999.90;;;7.50;99.90;;;;;;4994981;28;20708;-73
2020/12/12 09:34:55;;;;;;;1999.90;999.90;;;7.50;99.90;;;;;;4995073;28;20323;-74
2020/12/12 09:37:22;;;;;;;1999.90;999.90;;;7.60;99.90;;;;;;4995077;28;20259;-74
2020/12/12 09:39:49;;;;;;;1999.90;999.90;;;7.60;99.90;;;;;;4994804;28;20220;-74
2020/12/12 09:42:16;;;;;;;1999.90;999.90;;;7.60;99.90;;;;;;4995036;28;20564;-73
2020/12/12 09:44:43;;;;;;;1999.90;999.90;;;7.80;99.90;;;;;;4994230;28;20235;-74
2020/12/12 09:47:09;;;;;;;1999.90;999.90;;;7.80;99.90;;;;;;4994465;28;20288;-73
2020/12/12 09:49:41;;;;;;;1999.90;999.90;;;7.80;99.90;;;;;;4994848;28;20214;-73
2020/12/12 09:52:09;;;;;;;1999.90;999.90;;;7.70;99.90;;;;;;4994673;28;20774;-71
2020/12/12 09:54:36;;;;;;;1999.90;999.90;;;7.80;99.90;;;;;;4994632;28;20776;-72
2020/12/12 09:57:03;;;;;;;1999.90;999.90;;;7.80;99.90;;;;;;4995032;28;20212;-73
2020/12/12 09:59:29;;;;;;;1999.90;999.90;;;7.90;99.90;;;;;;4994227;28;20212;-73
2020/12/12 10:02:07;;;;;;;1999.90;999.90;;;8.00;99.90;;;;;;4994747;28;20254;-76
2020/12/12 10:04:34;;;;;;;1999.90;999.90;;;8.10;99.90;;;;;;4994502;28;20235;-77
2020/12/12 10:07:02;;;;;;;1999.90;999.90;;;8.20;99.90;;;;;;4987849;28;20611;-76
2020/12/12 10:09:28;;;;;;;1999.90;999.90;;;8.20;99.90;;;;;;4993840;28;20255;-76
2020/12/12 10:11:55;;;;;;;1999.90;999.90;;;8.30;99.90;;;;;;4993947;28;20219;-76
2020/12/12 10:14:22;;;;;;;1999.90;999.90;;;8.30;99.90;;;;;;4994006;28;20236;-76
2020/12/12 10:16:49;;;;;;;1999.90;999.90;;;8.30;99.90;;;;;;4993962;28;20459;-76
2020/12/12 10:19:16;;;;;;;1999.90;999.90;;;8.20;99.90;;;;;;4993839;28;20208;-74
2020/12/12 10:21:43;;;;;;;1999.90;999.90;;;8.10;99.90;;;;;;4993543;28;20900;-74
2020/12/12 10:24:10;;;;;;;1999.90;999.90;;;8.20;99.90;;;;;;4993708;28;20228;-74
2020/12/12 10:26:37;;;;;;;1999.90;999.90;;;8.30;99.90;;;;;;4993402;28;20204;-74
2020/12/12 10:29:07;;;;;;;1999.90;999.90;;;8.30;99.90;;;;;;4993784;28;20211;-74
2020/12/12 10:31:34;;;;;;;1999.90;999.90;;;8.30;99.90;;;;;;4993676;28;20258;-74
2020/12/12 10:34:01;;;;;;;1999.90;999.90;;;8.30;99.90;;;;;;4993645;28;20234;-74
2020/12/12 10:36:28;;;;;;;1999.90;999.90;;;8.40;99.90;;;;;;4993980;28;20299;-73
2020/12/12 10:38:55;;;;;;;1999.90;999.90;;;8.60;99.90;;;;;;4993360;28;20223;-75
2020/12/12 10:41:28;;;;;;;1999.90;999.90;;;8.50;99.90;;;;;;4993592;28;20200;-74
2020/12/12 10:43:55;;;;;;;1999.90;999.90;;;8.60;99.90;;;;;;4993561;28;20224;-74
2020/12/12 10:46:21;;;;;;;1999.90;999.90;;;8.70;99.90;;;;;;4993658;28;20207;-74
2020/12/12 10:48:49;;;;;;;1999.90;999.90;;;8.80;99.90;;;;;;4993280;28;20208;-74
2020/12/12 10:51:16;;;;;;;1999.90;999.90;;;8.80;99.90;;;;;;4992637;28;20223;-74
2020/12/12 10:53:43;;;;;;;1999.90;999.90;;;8.80;99.90;;;;;;4993017;28;20294;-75
2020/12/12 10:56:10;;;;;;;1999.90;999.90;;;8.80;99.90;;;;;;4990848;28;20210;-74
2020/12/12 10:58:38;;;;;;;1999.90;999.90;;;9.00;99.90;;;;;;4992868;28;20203;-74
2020/12/12 11:01:05;;;;;;;1999.90;999.90;;;8.90;99.90;;;;;;4992766;28;20200;-75
2020/12/12 11:03:32;;;;;;;1999.90;999.90;;;8.90;99.90;;;;;;4992512;28;20220;-74
2020/12/12 11:05:59;;;;;;;1999.90;999.90;;;8.90;99.90;;;;;;4992337;28;20231;-75
2020/12/12 11:08:26;;;;;;;1999.90;999.90;;;8.60;99.90;;;;;;4992415;28;20743;-75
2020/12/12 11:10:53;;;;;;;1999.90;999.90;;;8.90;99.90;;;;;;4992569;28;20266;-75
2020/12/12 11:13:20;;;;;;;1999.90;999.90;;;9.30;99.90;;;;;;4992599;28;20511;-75
2020/12/12 11:15:48;;;;;;;1999.90;999.90;;;9.10;99.90;;;;;;4992634;28;20200;-75
2020/12/12 11:18:15;;;;;;;1999.90;999.90;;;9.20;99.90;;;;;;4992419;28;20700;-75
2020/12/12 11:20:42;;;;;;;1999.90;999.90;;;9.20;99.90;;;;;;4992249;28;20238;-75
2020/12/12 11:23:08;;;;;;;1999.90;999.90;;;9.10;99.90;;;;;;4992557;28;20255;-75
2020/12/12 11:25:35;;;;;;;1999.90;999.90;;;9.20;99.90;;;;;;4992796;28;20196;-75
2020/12/12 11:28:02;;;;;;;1999.90;999.90;;;9.10;99.90;;;;;;4992346;28;20653;-75
2020/12/12 11:30:30;;;;;;;1999.90;999.90;;;9.20;99.90;;;;;;4989935;28;20254;-74
2020/12/12 11:32:58;;;;;;;1999.90;999.90;;;9.20;99.90;;;;;;4992234;28;20595;-75
2020/12/12 11:35:29;;;;;;;1999.90;999.90;;;9.10;99.90;;;;;;4992073;28;20224;-74
2020/12/12 11:38:11;;;;;;;1999.90;999.90;;;9.30;99.90;;;;;;4992394;28;20211;-74
2020/12/12 11:40:45;;;;;;;1999.90;999.90;;;9.30;99.90;;;;;;4992664;28;20211;-74
2020/12/12 11:46:11;;;;;;;1999.90;999.90;;;9.60;99.90;;;;;;4988220;28;20208;-74
2020/12/12 11:48:39;;;;;;;1999.90;999.90;;;9.40;99.90;;;;;;4991572;28;20294;-76
2020/12/12 11:51:06;;;;;;;1999.90;999.90;;;9.40;99.90;;;;;;4991134;28;20200;-76
2020/12/12 11:53:34;;;;;;;1999.90;999.90;;;9.40;99.90;;;;;;4989511;28;20227;-76
2020/12/12 11:56:01;;;;;;;1999.90;999.90;;;9.30;99.90;;;;;;4991818;28;20192;-78
2020/12/12 11:58:28;;;;;;;1999.90;999.90;;;9.30;99.90;;;;;;4992133;28;20208;-76
2020/12/12 12:00:55;;;;;;;1999.90;999.90;;;9.20;99.90;;;;;;4992400;28;20254;-76
2020/12/12 12:03:22;;;;;;;1999.90;999.90;;;9.30;99.90;;;;;;4992954;28;20204;-76
2020/12/12 12:05:51;;;;;;;1999.90;999.90;;;9.30;99.90;;;;;;4992315;28;20254;-76
2020/12/12 12:08:26;;;;;;;1999.90;999.90;;;9.40;99.90;;;;;;4992506;28;20207;-76
2020/12/12 12:11:08;;;;;;;1999.90;999.90;;;9.40;99.90;;;;;;4992941;28;20238;-76
2020/12/12 12:13:35;;;;;;;1999.90;999.90;;;9.40;99.90;;;;;;4992320;28;20228;-77
2020/12/12 12:16:03;;;;;;;1999.90;999.90;;;9.40;99.90;;;;;;4992351;23;20229;-80
2020/12/12 12:18:30;;;;;;;1999.90;999.90;;;9.40;99.90;;;;;;4949938;29;20261;-76
2020/12/12 12:20:59;;;;;;;1999.90;999.90;;;9.50;99.90;;;;;;4956190;29;20253;-76
2020/12/12 12:23:26;;;;;;;1999.90;999.90;;;9.40;99.90;;;;;;4957627;29;20209;-79
2020/12/12 12:25:55;;;;;;;1999.90;999.90;;;9.40;99.90;;;;;;4957478;28;20635;-79
2020/12/12 12:28:22;;;;;;;1999.90;999.90;;;9.40;99.90;;;;;;4957362;29;20213;-77
2020/12/12 12:30:49;;;;;;;1999.90;999.90;;;9.20;99.90;;;;;;4955628;29;20209;-77
2020/12/12 12:33:16;;;;;;;1999.90;999.90;;;9.20;99.90;;;;;;4948813;29;20224;-77
2020/12/12 12:35:43;;;;;;;1999.90;999.90;;;9.40;99.90;;;;;;4956824;28;20231;-76
2020/12/12 12:38:11;;;;;;;1999.90;999.90;;;9.40;99.90;;;;;;4951838;29;20210;-80
2020/12/12 12:40:38;;;;;;;1999.90;999.90;;;9.60;99.90;;;;;;4953711;29;20198;-80
2020/12/12 12:43:05;;;;;;;1999.90;999.90;;;9.60;99.90;;;;;;4941555;29;20319;-80
2020/12/12 12:45:32;;;;;;;1999.90;999.90;;;9.60;99.90;;;;;;4944429;29;20230;-80
2020/12/12 12:47:59;;;;;;;1999.90;999.90;;;9.60;99.90;;;;;;4947005;29;20714;-78
2020/12/12 12:50:33;;;;;;;1999.90;999.90;;;9.70;99.90;;;;;;4949164;29;20205;-79
2020/12/12 12:53:01;;;;;;;1999.90;999.90;;;9.60;99.90;;;;;;4951633;29;20307;-81
2020/12/12 12:55:29;;;;;;;1999.90;999.90;;;9.60;99.90;;;;;;4952594;28;20642;-81
2020/12/12 12:57:57;;;;;;;1999.90;999.90;;;9.60;99.90;;;;;;4955659;29;20579;-78
2020/12/12 13:00:25;;;;;;;1999.90;999.90;;;9.60;99.90;;;;;;4956851;29;20256;-78
2020/12/12 13:02:52;;;;;;;1999.90;999.90;;;9.60;99.90;;;;;;4956547;28;20209;-78
2020/12/12 13:05:19;;;;;;;1999.90;999.90;;;9.40;99.90;;;;;;4945137;29;20221;-79
2020/12/12 13:07:46;;;;;;;1999.90;999.90;;;9.40;99.90;;;;;;4942181;29;20675;-79
2020/12/12 13:10:26;;;;;;;1999.90;999.90;;;9.30;99.90;;;;;;4955405;29;20205;-78
2020/12/12 13:12:54;;;;;;;1999.90;999.90;;;9.30;99.90;;;;;;4962555;29;20284;-78
2020/12/12 13:15:27;;;;;;;1999.90;999.90;;;9.30;99.90;;;;;;4961157;28;20304;-78
2020/12/12 13:17:54;;;;;;;1999.90;999.90;;;9.10;99.90;;;;;;4962336;29;20228;-78
2020/12/12 13:20:26;;;;;;;1999.90;999.90;;;8.90;99.90;;;;;;4963687;29;20205;-78
2020/12/12 13:22:53;;;;;;;1999.90;999.90;;;8.90;99.90;;;;;;4950003;29;20662;-78
2020/12/12 13:25:20;;;;;;;1999.90;999.90;;;8.90;99.90;;;;;;4943704;29;20277;-79
2020/12/12 13:27:47;;;;;;;1999.90;999.90;;;8.80;99.90;;;;;;4942280;29;20210;-79
2020/12/12 13:30:19;;;;;;;1999.90;999.90;;;8.80;99.90;;;;;;4941384;29;20206;-79
2020/12/12 13:32:47;;;;;;;1999.90;999.90;;;8.70;99.90;;;;;;4941703;29;20281;-79
2020/12/12 13:35:15;;;;;;;1999.90;999.90;;;8.70;99.90;;;;;;4942849;29;20229;-79
2020/12/12 13:37:43;;;;;;;1999.90;999.90;;;8.70;99.90;;;;;;4941443;29;20627;-79
2020/12/12 13:40:10;;;;;;;1999.90;999.90;;;8.60;99.90;;;;;;4941073;29;20700;-79
2020/12/12 13:42:37;;;;;;;1999.90;999.90;;;8.50;99.90;;;;;;4947796;29;20738;-78
2020/12/12 13:45:06;;;;;;;1999.90;999.90;;;8.40;99.90;;;;;;4947549;28;20221;-78
2020/12/12 13:47:34;;;;;;;1999.90;999.90;;;8.30;99.90;;;;;;4947872;29;20197;-80
2020/12/12 13:50:03;;;;;;;1999.90;999.90;;;8.10;99.90;;;;;;4954267;29;20245;-79
2020/12/12 13:52:30;;;;;;;1999.90;999.90;;;8.00;99.90;;;;;;4945861;29;20222;-78
2020/12/12 13:54:57;;;;;;;1999.90;999.90;;;8.00;99.90;;;;;;4946099;28;20304;-79
2020/12/12 13:57:24;;;;;;;1999.90;999.90;;;8.00;99.90;;;;;;4946210;29;20202;-79
2020/12/12 13:59:50;;;;;;;1999.90;999.90;;;8.00;99.90;;;;;;4947024;29;20229;-77
2020/12/12 14:02:17;;;;;;;1999.90;999.90;;;8.00;99.90;;;;;;4952012;29;20272;-78
2020/12/12 14:04:45;;;;;;;1999.90;999.90;;;8.00;99.90;;;;;;4946720;28;20201;-79
2020/12/12 14:07:22;;;;;;;1999.90;999.90;;;7.90;99.90;;;;;;4949212;29;20272;-78
2020/12/12 14:10:15;;;;;;;1999.90;999.90;;;7.90;99.90;;;;;;4948396;29;20201;-78
2020/12/12 14:23:41;;;;;;;1999.90;999.90;;;7.60;99.90;;;;;;4947960;29;20190;-82
2020/12/12 14:29:04;;;;;;;1999.90;999.90;;;7.70;99.90;;;;;;4951503;29;20201;-82
2020/12/12 14:31:30;;;;;;;1999.90;999.90;;;7.60;99.90;;;;;;4955337;29;20198;-80
2020/12/12 14:33:57;;;;;;;1999.90;999.90;;;7.50;99.90;;;;;;4950325;29;20205;-81
2020/12/12 14:36:25;;;;;;;1999.90;999.90;;;7.50;99.90;;;;;;4954301;29;20569;-81
2020/12/12 14:38:52;;;;;;;1999.90;999.90;;;7.60;99.90;;;;;;4961879;29;20666;-81
2020/12/12 14:41:20;;;;;;;1999.90;999.90;;;7.50;99.90;;;;;;4963168;29;20627;-80
2020/12/12 14:43:47;;;;;;;1999.90;999.90;;;7.50;99.90;;;;;;4960739;29;20256;-80
2020/12/12 14:46:14;;;;;;;1999.90;999.90;;;7.50;99.90;;;;;;4961274;28;20276;-79
2020/12/12 14:48:44;;;;;;;1999.90;999.90;;;7.50;99.90;;;;;;4958885;29;20224;-81
2020/12/12 14:51:11;;;;;;;1999.90;999.90;;;7.50;99.90;;;;;;4959680;29;20205;-78
2020/12/12 14:53:38;;;;;;;1999.90;999.90;;;7.50;99.90;;;;;;4966604;28;20245;-81
2020/12/12 14:56:05;;;;;;;1999.90;999.90;;;7.60;99.90;;;;;;4965045;28;20303;-81
2020/12/12 14:58:32;;;;;;;1999.90;999.90;;;7.60;99.90;;;;;;4969817;28;20219;-81
2020/12/12 15:01:01;;;;;;;1999.90;999.90;;;7.60;99.90;;;;;;4969791;28;20662;-82
2020/12/12 15:03:28;;;;;;;1999.90;999.90;;;7.60;99.90;;;;;;4965264;28;20213;-80
2020/12/12 15:05:56;;;;;;;1999.90;999.90;;;7.60;99.90;;;;;;4939944;29;20221;-82
2020/12/12 15:08:22;;;;;;;1999.90;999.90;;;7.60;99.90;;;;;;4946641;29;20283;-83
2020/12/12 15:10:50;;;;;;;1999.90;999.90;;;7.60;99.90;;;;;;4947197;29;20289;-82
2020/12/12 15:13:17;;;;;;;1999.90;999.90;;;7.60;99.90;;;;;;4950705;29;20217;-82
2020/12/12 15:15:44;;;;;;;1999.90;999.90;;;7.70;99.90;;;;;;4947689;29;20280;-81
2020/12/12 15:18:11;;;;;;;1999.90;999.90;;;7.60;99.90;;;;;;4950626;29;20203;-82
2020/12/12 15:20:40;;;;;;;1999.90;999.90;;;7.70;99.90;;;;;;4948571;29;20197;-79
2020/12/12 15:23:17;;;;;;;1999.90;999.90;;;7.60;99.90;;;;;;4948686;29;20204;-76
2020/12/12 15:25:44;;;;;;;1999.90;999.90;;;7.60;99.90;;;;;;4948391;28;20296;-80
2020/12/12 15:28:12;;;;;;;1999.90;999.90;;;7.70;99.90;;;;;;4946548;29;20206;-79
2020/12/12 15:30:40;;;;;;;1999.90;999.90;;;7.60;99.90;;;;;;4948131;29;20197;-78
2020/12/12 15:33:07;;;;;;;1999.90;999.90;;;7.60;99.90;;;;;;4950840;29;20249;-80
2020/12/12 15:35:34;;;;;;;1999.90;999.90;;;7.60;99.90;;;;;;4944860;29;20307;-80
2020/12/12 15:38:05;;;;;;;1999.90;999.90;;;7.70;99.90;;;;;;4945972;29;20198;-81
2020/12/12 15:40:33;;;;;;;1999.90;999.90;;;7.70;99.90;;;;;;4952223;29;20214;-79
2020/12/12 15:43:00;;;;;;;1999.90;999.90;;;7.60;99.90;;;;;;4957915;29;20209;-79
2020/12/12 15:45:29;;;;;;;1999.90;999.90;;;7.60;99.90;;;;;;4956884;28;20256;-79
2020/12/12 15:48:04;;;;;;;1999.90;999.90;;;7.60;99.90;;;;;;4957209;29;20205;-78
2020/12/12 15:50:31;;;;;;;1999.90;999.90;;;7.70;99.90;;;;;;4957822;29;20206;-79
2020/12/12 15:52:58;;;;;;;1999.90;999.90;;;7.70;99.90;;;;;;4956194;29;20257;-77
2020/12/12 15:55:25;;;;;;;1999.90;999.90;;;7.70;99.90;;;;;;4956496;28;20264;-77
2020/12/12 15:57:52;;;;;;;1999.90;999.90;;;7.80;99.90;;;;;;4955894;29;20256;-80
2020/12/12 16:00:19;;;;;;;1999.90;999.90;;;7.80;99.90;;;;;;4957501;29;20236;-79
2020/12/12 16:02:47;;;;;;;1999.90;999.90;;;7.80;99.90;;;;;;4958131;29;20261;-79
2020/12/12 16:05:14;;;;;;;1999.90;999.90;;;7.90;99.90;;;;;;4956465;28;20221;-78
2020/12/12 16:07:45;;;;;;;1999.90;999.90;;;8.00;99.90;;;;;;4954452;29;20213;-79
2020/12/12 16:10:12;;;;;;;1999.90;999.90;;;7.90;99.90;;;;;;4957011;29;20197;-81
2020/12/12 16:12:40;;;;;;;1999.90;999.90;;;7.90;99.90;;;;;;4955787;29;20242;-80
2020/12/12 16:15:08;;;;;;;1999.90;999.90;;;7.90;99.90;;;;;;4955281;28;20233;-82
2020/12/12 16:17:35;;;;;;;1999.90;999.90;;;7.90;99.90;;;;;;4949311;29;20214;-81
2020/12/12 16:20:04;;;;;;;1999.90;999.90;;;8.00;99.90;;;;;;4941764;29;20214;-81
2020/12/12 16:22:30;;;;;;;1999.90;999.90;;;8.00;99.90;;;;;;4939865;29;20571;-82
2020/12/12 16:24:57;;;;;;;1999.90;999.90;;;8.10;99.90;;;;;;4940492;29;20316;-81
2020/12/12 16:27:30;;;;;;;1999.90;999.90;;;8.00;99.90;;;;;;4954677;29;20285;-81
2020/12/12 16:29:57;;;;;;;1999.90;999.90;;;8.10;99.90;;;;;;4958515;29;20202;-81
2020/12/12 16:32:26;;;;;;;1999.90;999.90;;;8.10;99.90;;;;;;4959232;29;20232;-82
2020/12/12 16:34:53;;;;;;;1999.90;999.90;;;8.20;99.90;;;;;;4950485;29;20699;-82
2020/12/12 16:37:20;;;;;;;1999.90;999.90;;;8.10;99.90;;;;;;4954016;29;20201;-79
2020/12/12 16:39:47;;;;;;;1999.90;999.90;;;8.10;99.90;;;;;;4962896;29;20260;-78
2020/12/12 16:42:17;;;;;;;1999.90;999.90;;;8.20;99.90;;;;;;4958381;29;20206;-81
2020/12/12 16:44:45;;;;;;;1999.90;999.90;;;8.10;99.90;;;;;;4965037;28;20622;-79
2020/12/12 16:47:12;;;;;;;1999.90;999.90;;;8.10;99.90;;;;;;4971674;29;20237;-78
2020/12/12 16:49:39;;;;;;;1999.90;999.90;;;8.10;99.90;;;;;;4966255;29;20201;-77
2020/12/12 16:52:19;;;;;;;1999.90;999.90;;;8.00;99.90;;;;;;4964499;29;20241;-78
2020/12/12 16:54:46;;;;;;;1999.90;999.90;;;7.80;99.90;;;;;;4968328;28;20205;-77
2020/12/12 16:57:13;;;;;;;1999.90;999.90;;;7.80;99.90;;;;;;4972055;29;20217;-79
2020/12/12 16:59:40;;;;;;;1999.90;999.90;;;7.80;99.90;;;;;;4972128;29;20233;-79
2020/12/12 17:02:07;;;;;;;1999.90;999.90;;;7.80;99.90;;;;;;4972245;29;20209;-78
2020/12/12 17:04:35;;;;;;;1999.90;999.90;;;7.80;99.90;;;;;;4973591;29;20221;-80
2020/12/12 17:07:02;;;;;;;1999.90;999.90;;;7.80;99.90;;;;;;4973507;29;20205;-78
2020/12/12 17:09:31;;;;;;;1999.90;999.90;;;7.70;99.90;;;;;;4971648;29;20229;-78
2020/12/12 17:12:01;;;;;;;1999.90;999.90;;;7.80;99.90;;;;;;4973056;29;20201;-80
2020/12/12 17:14:29;;;;;;;1999.90;999.90;;;7.80;99.90;;;;;;4969642;29;20631;-80
2020/12/12 17:16:56;;;;;;;1999.90;999.90;;;7.80;99.90;;;;;;4958425;28;20229;-77
2020/12/12 17:19:23;;;;;;;1999.90;999.90;;;7.80;99.90;;;;;;4958966;29;20300;-79
2020/12/12 17:21:50;;;;;;;1999.90;999.90;;;7.90;99.90;;;;;;4958946;29;20202;-80
2020/12/12 17:24:20;;;;;;;1999.90;999.90;;;7.80;99.90;;;;;;4955966;29;20260;-80
2020/12/12 17:26:50;;;;;;;1999.90;999.90;;;7.70;99.90;;;;;;4954413;29;20221;-78
2020/12/12 17:29:18;;;;;;;1999.90;999.90;;;7.80;99.90;;;;;;4962274;29;20209;-81
2020/12/12 17:31:46;;;;;;;1999.90;999.90;;;7.80;99.90;;;;;;4963316;29;20205;-81
2020/12/12 17:34:13;;;;;;;1999.90;999.90;;;7.80;99.90;;;;;;4964528;29;20649;-80
2020/12/12 17:36:46;;;;;;;1999.90;999.90;;;7.90;99.90;;;;;;4965282;28;20656;-80
2020/12/12 17:39:13;;;;;;;1999.90;999.90;;;7.80;99.90;;;;;;4964039;29;20201;-84
2020/12/12 17:41:50;;;;;;;1999.90;999.90;;;7.80;99.90;;;;;;4961951;29;20205;-83
2020/12/12 17:53:50;;;;;;;1999.90;999.90;;;9.20;99.90;;;;;;4921888;29;20575;-83
2020/12/12 17:56:25;;;;;;;1999.90;999.90;;;8.00;99.90;;;;;;4964530;28;20644;-82
2020/12/12 17:58:54;;;;;;;1999.90;999.90;;;8.00;99.90;;;;;;4964233;29;20205;-83
2020/12/12 18:05:10;;;;;;;;;;;;;;;;;;;;;
2020/12/12 18:07:55;;;;;;;1999.90;999.90;;;9.40;99.90;;;;;;4952200;29;20216;-81
2020/12/12 18:10:25;;;;;;;1999.90;999.90;;;7.80;99.90;;;;;;4964355;29;20663;-81
2020/12/12 18:12:53;;;;;;;1999.90;999.90;;;7.80;99.90;;;;;;4962912;29;20339;-81
2020/12/12 18:15:20;;;;;;;1999.90;999.90;;;7.70;99.90;;;;;;4965802;28;20264;-81
2020/12/12 18:17:47;;;;;;;1999.90;999.90;;;7.70;99.90;;;;;;4961003;28;20209;-80
2020/12/12 18:20:17;;;;;;;1999.90;999.90;;;7.70;99.90;;;;;;4958033;29;20206;-80
2020/12/12 18:22:44;;;;;;;1999.90;999.90;;;7.70;99.90;;;;;;4958243;29;20205;-80
2020/12/12 18:25:13;;;;;;;1999.90;999.90;;;7.50;99.90;;;;;;4957699;28;20566;-81
2020/12/12 18:27:46;;;;;;;1999.90;999.90;;;7.50;99.90;;;;;;4957607;29;20208;-81
2020/12/12 18:30:13;;;;;;;1999.90;999.90;;;7.60;99.90;;;;;;4957798;29;20263;-81
2020/12/12 18:32:41;;;;;;;1999.90;999.90;;;7.60;99.90;;;;;;4958826;29;20284;-81
2020/12/12 18:35:10;;;;;;;1999.90;999.90;;;7.60;99.90;;;;;;4958260;28;20225;-80
2020/12/12 18:37:38;;;;;;;1999.90;999.90;;;7.60;99.90;;;;;;4957721;29;20201;-81
2020/12/12 18:40:06;;;;;;;1999.90;999.90;;;7.60;99.90;;;;;;4956967;29;20205;-81
2020/12/12 18:42:33;;;;;;;1999.90;999.90;;;7.60;99.90;;;;;;4953420;29;20201;-78
2020/12/12 18:45:01;;;;;;;1999.90;999.90;;;7.60;99.90;;;;;;4942472;29;20284;-78
2020/12/12 18:47:27;;;;;;;1999.90;999.90;;;7.70;99.90;;;;;;4954766;29;20260;-78